avis per tempestes more information blitzortung!


avis per Pluja more information rain snow radar


Visita la nostra xarxa de llocs de meteo:

Template documentation
and downloads

And another site



Thunderstorms From: 20-07-2018 17:00 Until: 21-07-2018 01:59 warning for: Thunderstorms Level: Yellow info button
Rain From: 20-07-2018 17:00 Until: 21-07-2018 01:59 warning for: Rain Level: Yellow info button

Pagina Historial Weather Underground text

Diari Resum January 5, 2016 Unitats:  Mètric    Imperial   Tant
« Previous Dia
SegĂźent Dia »
Diari Setmana Mensual Anual Personalitzada
  Maxima: Minima: Media:
Temperatura: -17.8 °C -13.5 °C -12 °C
Punt de rosada: -17.8 °C -18.4 °C -17.6 °C
Humitat: Humidity % 45 % 49 %
Wind Speed: 0 km/h 2.6 km/h 11.6 km/h
RĂ fegues de vent: 0 km/h - -
Vent:- - WSW
Pression baro: 0 hPa 33924.3 hPa -
Precipitacions: 0 mm    
Historical Graphs
 
 
Dades de taula per January 5, 2016
Temps Temperatura Punt de rosada Pression baro Vent Wind Speed RĂ fegues de vent Humitat Rainfall Rate (Hourly)
-17.8 °C -17.8 °C 0 hPa Calm     Humidity % 0 mm
13:04 -10.3 °C -15.8 °C 33992.1 hPa WSW 15 km/h 15 km/h 51 % 0 mm
13:09 -10.3 °C -16 °C 33992.1 hPa WSW 23.8 km/h 23.8 km/h 50 % 0 mm
13:14 -10.3 °C -16.1 °C 33992.1 hPa West 23.8 km/h 23.8 km/h 49 % 0 mm
13:19 -10.2 °C -16.2 °C 33992.1 hPa WSW 15 km/h 15 km/h 48 % 0 mm
13:24 -10.2 °C -16.2 °C 33992.1 hPa West 9 km/h 9 km/h 48 % 0 mm
13:29 -10.1 °C -15.9 °C 33958.2 hPa WNW 8.5 km/h 8.5 km/h 49 % 0 mm
13:34 -10 °C -16 °C 33958.2 hPa SSW 20.9 km/h 20.9 km/h 48 % 0 mm
13:39 -10 °C -16 °C 33958.2 hPa WSW 9.3 km/h 11.1 km/h 48 % 0 mm
13:44 -10.1 °C -16.4 °C 33958.2 hPa SW 15 km/h 15 km/h 46 % 0 mm
13:49 -10.2 °C -16.5 °C 33958.2 hPa WNW 9 km/h 9 km/h 46 % 0 mm
13:54 -10.3 °C -16.6 °C 33958.2 hPa WSW 20.9 km/h 20.9 km/h 46 % 0 mm
13:59 -10.3 °C -16.7 °C 33958.2 hPa WSW 26.9 km/h 26.9 km/h 46 % 0 mm
14:04 -10.3 °C -16.7 °C 33958.2 hPa WSW 26.9 km/h 26.9 km/h 46 % 0 mm
14:09 -10.3 °C -16.7 °C 33958.2 hPa WSW 26.9 km/h 26.9 km/h 46 % 0 mm
14:14 -10.4 °C -16.9 °C 33958.2 hPa WNW 26.9 km/h 26.9 km/h 45 % 0 mm
14:19 -10.4 °C -16.7 °C 33958.2 hPa WSW 26.9 km/h 26.9 km/h 46 % 0 mm
14:24 -10.6 °C -16.9 °C 33958.2 hPa WSW 26.9 km/h 26.9 km/h 46 % 0 mm
14:29 -10.6 °C -16.8 °C 33958.2 hPa WSW 7.6 km/h 8 km/h 47 % 0 mm
14:34 -10.5 °C -16.6 °C 33958.2 hPa WSW 7.6 km/h 8 km/h 47 % 0 mm
14:39 -10.5 °C -16.6 °C 33958.2 hPa SW 18.3 km/h 18.3 km/h 47 % 0 mm
14:44 -10.6 °C -16.7 °C 33924.3 hPa WNW 15 km/h 15 km/h 47 % 0 mm
14:49 -10.6 °C -16.7 °C 33924.3 hPa West 12.7 km/h 12.7 km/h 47 % 0 mm
14:54 -10.8 °C -16.9 °C 33924.3 hPa West 12.7 km/h 12.7 km/h 47 % 0 mm
14:59 -10.9 °C -16.9 °C 33924.3 hPa WNW 12.7 km/h 12.7 km/h 48 % 0 mm
15:04 -11.1 °C -17 °C 33924.3 hPa WSW 9.8 km/h 9.8 km/h 48 % 0 mm
15:09 -11.1 °C -16.8 °C 33924.3 hPa West 9.8 km/h 9.8 km/h 49 % 0 mm
15:14 -10.9 °C -16.7 °C 33924.3 hPa WSW 9 km/h 9 km/h 49 % 0 mm
15:19 -11.1 °C -16.8 °C 33924.3 hPa SW 9.3 km/h 9.3 km/h 49 % 0 mm
15:24 -11.2 °C -17.1 °C 33924.3 hPa SW 9.3 km/h 9.3 km/h 48 % 0 mm
15:29 -11.2 °C -17.2 °C 33924.3 hPa SW 9.3 km/h 9.3 km/h 48 % 0 mm
15:34 -11.2 °C -17.3 °C 33924.3 hPa SW 9.3 km/h 9.3 km/h 47 % 0 mm
15:39 -11.2 °C -17.3 °C 33924.3 hPa West 11.9 km/h 11.9 km/h 47 % 0 mm
15:44 -11.2 °C -17.3 °C 33958.2 hPa SW 9 km/h 12.2 km/h 47 % 0 mm
15:49 -11.1 °C -17.2 °C 33958.2 hPa WSW 20.9 km/h 20.9 km/h 47 % 0 mm
15:54 -10.8 °C -16.9 °C 33958.2 hPa WSW 11.9 km/h 11.9 km/h 47 % 0 mm
15:59 -10.6 °C -16.6 °C 33958.2 hPa WSW 20.9 km/h 20.9 km/h 48 % 0 mm
16:04 -10.6 °C -16.7 °C 33958.2 hPa WSW 32.8 km/h 32.8 km/h 47 % 0 mm
16:09 -10.7 °C -17 °C 33958.2 hPa WSW 17.9 km/h 17.9 km/h 46 % 0 mm
16:14 -10.6 °C -16.7 °C 33958.2 hPa West 14 km/h 14 km/h 47 % 0 mm
16:19 -10.8 °C -17.1 °C 33958.2 hPa WSW 23.8 km/h 23.8 km/h 46 % 0 mm
16:24 -10.9 °C -17.2 °C 33958.2 hPa WNW 23.8 km/h 23.8 km/h 46 % 0 mm
16:29 -10.8 °C -17.1 °C 33958.2 hPa West 15 km/h 15 km/h 46 % 0 mm
16:34 -10.8 °C -17.1 °C 33958.2 hPa SSW 9 km/h 9 km/h 46 % 0 mm
16:39 -10.8 °C -16.9 °C 33958.2 hPa West 6 km/h 6.8 km/h 47 % 0 mm
16:44 -10.9 °C -17 °C 33958.2 hPa WSW 6.3 km/h 11.6 km/h 47 % 0 mm
16:49 -10.9 °C -17 °C 33958.2 hPa SSW 9.8 km/h 9.8 km/h 47 % 0 mm
16:54 -10.9 °C -17.1 °C 33958.2 hPa West 15 km/h 15 km/h 47 % 0 mm
16:59 -11.1 °C -17.2 °C 33958.2 hPa West 15 km/h 15 km/h 47 % 0 mm
17:04 -11.1 °C -17.2 °C 33958.2 hPa West 15 km/h 15 km/h 47 % 0 mm
17:09 -11.1 °C -17.2 °C 33958.2 hPa West 15 km/h 15 km/h 47 % 0 mm
17:14 -11.2 °C -17.3 °C 33992.1 hPa West 15 km/h 15 km/h 47 % 0 mm
17:19 -11.3 °C -17.6 °C 33992.1 hPa West 15 km/h 15 km/h 46 % 0 mm
17:24 -11.6 °C -17.8 °C 33992.1 hPa West 15 km/h 15 km/h 46 % 0 mm
17:29 -11.7 °C -17.9 °C 33958.2 hPa West 15 km/h 15 km/h 46 % 0 mm
17:34 -11.8 °C -18 °C 33958.2 hPa West 15 km/h 15 km/h 46 % 0 mm
17:39 -11.8 °C -18 °C 33958.2 hPa West 15 km/h 15 km/h 46 % 0 mm
17:44 -11.9 °C -18.2 °C 33992.1 hPa West 15 km/h 15 km/h 46 % 0 mm
17:49 -12 °C -18.2 °C 33992.1 hPa West 15 km/h 15 km/h 46 % 0 mm
17:54 -12.1 °C -18.1 °C 33992.1 hPa West 15 km/h 15 km/h 47 % 0 mm
17:59 -12.2 °C -18.2 °C 33992.1 hPa West 15 km/h 15 km/h 47 % 0 mm
18:04 -12.2 °C -18.2 °C 33992.1 hPa West 15 km/h 15 km/h 47 % 0 mm
18:09 -12.2 °C -18.2 °C 33992.1 hPa West 15 km/h 15 km/h 47 % 0 mm
18:14 -12.3 °C -18.3 °C 33992.1 hPa West 15 km/h 15 km/h 47 % 0 mm
18:19 -12.3 °C -18.1 °C 33992.1 hPa West 15 km/h 15 km/h 48 % 0 mm
18:24 -12.3 °C -18.1 °C 33992.1 hPa SW 16.1 km/h 16.1 km/h 48 % 0 mm
18:29 -12.3 °C -18.2 °C 33992.1 hPa SW 16.1 km/h 16.1 km/h 48 % 0 mm
18:34 -12.4 °C -18.2 °C 33992.1 hPa SW 16.1 km/h 16.1 km/h 48 % 0 mm
18:39 -12.4 °C -18.2 °C 33992.1 hPa SW 16.1 km/h 16.1 km/h 48 % 0 mm
18:44 -12.4 °C -18.2 °C 33992.1 hPa WSW 15 km/h 15 km/h 48 % 0 mm
18:49 -12.4 °C -18.1 °C 33992.1 hPa WSW 11.9 km/h 12.2 km/h 49 % 0 mm
18:54 -12.4 °C -18.1 °C 33992.1 hPa WSW 11.9 km/h 12.2 km/h 49 % 0 mm
18:59 -12.4 °C -18.1 °C 34029.3 hPa WSW 11.9 km/h 12.2 km/h 49 % 0 mm
19:04 -12.5 °C -18.2 °C 34029.3 hPa WSW 11.9 km/h 12.2 km/h 49 % 0 mm
19:09 -12.6 °C -18.2 °C 34029.3 hPa WSW 11.9 km/h 12.2 km/h 49 % 0 mm
19:14 -12.6 °C -18.2 °C 33992.1 hPa WSW 11.9 km/h 12.2 km/h 49 % 0 mm
19:19 -12.7 °C -18.3 °C 33992.1 hPa WSW 11.9 km/h 12.2 km/h 49 % 0 mm
19:24 -12.7 °C -18.4 °C 33992.1 hPa WSW 11.9 km/h 12.2 km/h 49 % 0 mm
19:30 -12.7 °C -18.2 °C 33992.1 hPa WSW 12.9 km/h 12.9 km/h 50 % 0 mm
19:35 -12.8 °C -18.3 °C 33992.1 hPa WSW 7.7 km/h 12.9 km/h 50 % 0 mm
19:40 -12.8 °C -18.3 °C 33992.1 hPa West 9 km/h 9 km/h 50 % 0 mm
19:45 -12.8 °C -18.3 °C 33992.1 hPa West 7.7 km/h 7.7 km/h 50 % 0 mm
19:50 -12.8 °C -18.3 °C 33992.1 hPa West 7.7 km/h 7.7 km/h 50 % 0 mm
19:55 -12.8 °C -18.3 °C 33992.1 hPa West 7.7 km/h 7.7 km/h 50 % 0 mm
20:00 -12.8 °C -18.3 °C 33992.1 hPa West 7.7 km/h 7.7 km/h 50 % 0 mm
20:05 -12.8 °C -18.3 °C 33992.1 hPa West 5.1 km/h 7.7 km/h 50 % 0 mm
20:10 -12.8 °C -18.3 °C 33992.1 hPa West 7.7 km/h 18.2 km/h 50 % 0 mm
20:15 -12.8 °C -18.2 °C 33992.1 hPa West 7.7 km/h 12.9 km/h 51 % 0 mm
20:20 -12.8 °C -18.1 °C 33992.1 hPa West 5.1 km/h 7.7 km/h 51 % 0 mm
20:25 -12.8 °C -18.2 °C 33992.1 hPa WSW 7.7 km/h 7.7 km/h 51 % 0 mm
20:30 -12.9 °C -18.2 °C 34029.3 hPa West 5.1 km/h 15.6 km/h 51 % 0 mm
20:35 -12.9 °C -18.3 °C 34029.3 hPa WSW 9.3 km/h 9.3 km/h 51 % 0 mm
20:40 -12.9 °C -18.3 °C 34029.3 hPa WSW 9 km/h 9 km/h 51 % 0 mm
20:45 -13 °C -18.3 °C 34029.3 hPa WSW 5.1 km/h 7.7 km/h 51 % 0 mm
20:50 -13 °C -18.2 °C 34029.3 hPa WSW 12.2 km/h 12.2 km/h 52 % 0 mm
20:55 -13.1 °C -18.2 °C 34029.3 hPa WSW 5.1 km/h 12.9 km/h 52 % 0 mm
21:00 -13.1 °C -18.2 °C 34063.2 hPa WSW 5.1 km/h 12.9 km/h 52 % 0 mm
21:05 -13 °C -18.2 °C 34063.2 hPa WSW 9.3 km/h 14.5 km/h 52 % 0 mm
21:10 -13 °C -18.2 °C 34063.2 hPa West 6.8 km/h 6.8 km/h 52 % 0 mm
21:15 -13 °C -18.2 °C 34063.2 hPa West 5.1 km/h 10.3 km/h 52 % 0 mm
21:20 -13 °C -18 °C 34063.2 hPa WSW 7.7 km/h 10.3 km/h 53 % 0 mm
21:25 -13 °C -18 °C 34063.2 hPa West 5.1 km/h 7.7 km/h 53 % 0 mm
21:30 -13.1 °C -18.1 °C 34063.2 hPa West 3.7 km/h 3.7 km/h 53 % 0 mm
21:35 -13.1 °C -18.1 °C 34063.2 hPa WSW 3.7 km/h 5.1 km/h 53 % 0 mm
21:40 -13.1 °C -18.1 °C 34063.2 hPa WSW 6.3 km/h 6.3 km/h 53 % 0 mm
21:45 -13.2 °C -18.2 °C 34063.2 hPa WSW 6.3 km/h 6.3 km/h 53 % 0 mm
21:50 -13.2 °C -18.2 °C 34063.2 hPa WSW 5.1 km/h 5.1 km/h 53 % 0 mm
21:55 -13.2 °C -18.2 °C 34063.2 hPa WSW 5.1 km/h 5.1 km/h 53 % 0 mm
22:00 -13.2 °C -18.1 °C 34063.2 hPa WSW 7.7 km/h 12.9 km/h 54 % 0 mm
22:05 -13.1 °C -18 °C 34063.2 hPa WSW 5.1 km/h 12.9 km/h 54 % 0 mm
22:10 -13.1 °C -18 °C 34063.2 hPa WSW 5.1 km/h 12.9 km/h 54 % 0 mm
22:15 -13.2 °C -18.1 °C 34029.3 hPa West 5.1 km/h 15.6 km/h 54 % 0 mm
22:20 -13.2 °C -18.1 °C 34029.3 hPa West 6 km/h 6 km/h 54 % 0 mm
22:25 -13.2 °C -18.1 °C 34029.3 hPa SW 7.6 km/h 7.6 km/h 54 % 0 mm
22:30 -13.2 °C -18.1 °C 34063.2 hPa WSW 9.8 km/h 9.8 km/h 54 % 0 mm
22:35 -13.2 °C -18.1 °C 34063.2 hPa SSW 9 km/h 9 km/h 54 % 0 mm
22:40 -13.3 °C -18.2 °C 34063.2 hPa SW 11.9 km/h 11.9 km/h 54 % 0 mm
22:45 -13.3 °C -18.2 °C 34063.2 hPa WSW 11.9 km/h 11.9 km/h 54 % 0 mm
22:50 -13.3 °C -18.2 °C 34063.2 hPa WSW 5.1 km/h 12.9 km/h 54 % 0 mm
22:55 -13.3 °C -18.2 °C 34063.2 hPa WSW 4.2 km/h 5.1 km/h 54 % 0 mm
23:00 -13.3 °C -18.2 °C 34063.2 hPa West 2.6 km/h 7.7 km/h 54 % 0 mm
23:05 -13.3 °C -18.2 °C 34063.2 hPa WSW 2.6 km/h 5.1 km/h 54 % 0 mm
23:10 -13.3 °C -18.2 °C 34063.2 hPa WNW 9 km/h 9 km/h 54 % 0 mm
23:15 -13.4 °C -18.2 °C 34097 hPa West 2.6 km/h 10.3 km/h 54 % 0 mm
23:20 -13.4 °C -18.2 °C 34097 hPa West 5.1 km/h 12.9 km/h 54 % 0 mm
23:25 -13.4 °C -18.3 °C 34097 hPa West 2.6 km/h 5.1 km/h 54 % 0 mm
23:30 -13.4 °C -18.3 °C 34097 hPa West 7.7 km/h 18.2 km/h 54 % 0 mm
23:35 -13.4 °C -18.3 °C 34097 hPa WNW 6 km/h 6 km/h 54 % 0 mm
23:40 -13.4 °C -18.2 °C 34097 hPa WNW 4.2 km/h 5.6 km/h 54 % 0 mm
23:45 -13.4 °C -18.3 °C 34097 hPa NW 6 km/h 6 km/h 54 % 0 mm
23:50 -13.5 °C -18.4 °C 34097 hPa West 4.2 km/h 10.3 km/h 54 % 0 mm
23:55 -13.5 °C -18.4 °C 34097 hPa West 9 km/h 9 km/h 54 % 0 mm
Meteo Sesrovires
Elogis d' Weather Underground - 2 mb

Guio original per  Jim McMurry - jmcmurry@mwt.net Adaptat per a la plantilla per  Wim van der Kuil - Leuven-Template.eu

Trobareu la nostra informacio del temps tambe a:

Weather Underground

AWEKAS